sensor_id;sensor_type;location;lat;lon;timestamp;pressure;altitude;pressure_sealevel;temperature;humidity
32237;BME280;18726;44.732;10.550;2023-06-14T00:01:56;100529.97;;;22.93;100.00
32237;BME280;18726;44.732;10.550;2023-06-14T00:04:59;100535.69;;;22.85;100.00
32237;BME280;18726;44.732;10.550;2023-06-14T00:08:03;100531.78;;;22.83;100.00
32237;BME280;18726;44.732;10.550;2023-06-14T00:11:10;100534.38;;;22.90;100.00
32237;BME280;18726;44.732;10.550;2023-06-14T00:14:13;100528.94;;;22.86;100.00
32237;BME280;18726;44.732;10.550;2023-06-14T00:17:17;100518.47;;;22.78;100.00
32237;BME280;18726;44.732;10.550;2023-06-14T00:20:21;100525.28;;;22.73;100.00
32237;BME280;18726;44.732;10.550;2023-06-14T00:23:25;100525.94;;;22.81;100.00
32237;BME280;18726;44.732;10.550;2023-06-14T00:26:28;100525.28;;;22.89;100.00
32237;BME280;18726;44.732;10.550;2023-06-14T00:29:32;100519.75;;;22.89;100.00
32237;BME280;18726;44.732;10.550;2023-06-14T00:32:35;100519.75;;;22.89;100.00
32237;BME280;18726;44.732;10.550;2023-06-14T00:35:38;100513.84;;;23.04;100.00
32237;BME280;18726;44.732;10.550;2023-06-14T00:38:42;100511.97;;;23.01;100.00
32237;BME280;18726;44.732;10.550;2023-06-14T00:41:46;100508.31;;;23.04;100.00
32237;BME280;18726;44.732;10.550;2023-06-14T00:44:50;100503.66;;;23.01;100.00
32237;BME280;18726;44.732;10.550;2023-06-14T00:47:53;100503.38;;;22.95;100.00
32237;BME280;18726;44.732;10.550;2023-06-14T00:51:00;100505.03;;;22.76;100.00
32237;BME280;18726;44.732;10.550;2023-06-14T00:54:07;100505.66;;;22.51;100.00
32237;BME280;18726;44.732;10.550;2023-06-14T00:57:11;100496.38;;;22.42;100.00
32237;BME280;18726;44.732;10.550;2023-06-14T01:00:16;100494.31;;;22.46;100.00
32237;BME280;18726;44.732;10.550;2023-06-14T01:03:19;100489.28;;;22.41;100.00
32237;BME280;18726;44.732;10.550;2023-06-14T01:06:47;100491.19;;;22.44;100.00
32237;BME280;18726;44.732;10.550;2023-06-14T01:10:06;100497.78;;;22.50;100.00
32237;BME280;18726;44.732;10.550;2023-06-14T01:13:20;100488.44;;;22.44;100.00
32237;BME280;18726;44.732;10.550;2023-06-14T01:16:25;100487.81;;;22.36;100.00
32237;BME280;18726;44.732;10.550;2023-06-14T01:19:30;100479.41;;;22.23;100.00
32237;BME280;18726;44.732;10.550;2023-06-14T01:22:37;100484.63;;;22.38;100.00
32237;BME280;18726;44.732;10.550;2023-06-14T01:25:41;100484.06;;;22.27;100.00
32237;BME280;18726;44.732;10.550;2023-06-14T01:28:49;100485.47;;;22.35;100.00
32237;BME280;18726;44.732;10.550;2023-06-14T01:31:54;100480.97;;;22.41;100.00
32237;BME280;18726;44.732;10.550;2023-06-14T01:34:57;100479.94;;;22.35;100.00
32237;BME280;18726;44.732;10.550;2023-06-14T01:38:04;100476.91;;;22.29;100.00
32237;BME280;18726;44.732;10.550;2023-06-14T01:41:10;100479.25;;;22.31;100.00
32237;BME280;18726;44.732;10.550;2023-06-14T01:44:16;100473.22;;;22.52;100.00
32237;BME280;18726;44.732;10.550;2023-06-14T01:47:19;100474.56;;;22.60;100.00
32237;BME280;18726;44.732;10.550;2023-06-14T01:50:30;100471.28;;;22.65;100.00
32237;BME280;18726;44.732;10.550;2023-06-14T01:53:34;100475.88;;;22.72;100.00
32237;BME280;18726;44.732;10.550;2023-06-14T01:56:39;100461.41;;;22.64;100.00
32237;BME280;18726;44.732;10.550;2023-06-14T01:59:42;100462.44;;;22.54;100.00
32237;BME280;18726;44.732;10.550;2023-06-14T02:02:51;100465.41;;;22.47;100.00
32237;BME280;18726;44.732;10.550;2023-06-14T02:05:55;100462.81;;;22.56;100.00
32237;BME280;18726;44.732;10.550;2023-06-14T02:08:59;100457.44;;;22.65;100.00
32237;BME280;18726;44.732;10.550;2023-06-14T02:12:06;100454.66;;;22.65;100.00
32237;BME280;18726;44.732;10.550;2023-06-14T02:15:10;100453.63;;;22.75;100.00
32237;BME280;18726;44.732;10.550;2023-06-14T02:18:20;100452.78;;;22.78;100.00
32237;BME280;18726;44.732;10.550;2023-06-14T02:21:24;100453.38;;;22.53;100.00
32237;BME280;18726;44.732;10.550;2023-06-14T02:24:28;100458.81;;;22.57;100.00
32237;BME280;18726;44.732;10.550;2023-06-14T02:27:31;100455.72;;;22.39;100.00
32237;BME280;18726;44.732;10.550;2023-06-14T02:30:35;100461.78;;;22.34;100.00
32237;BME280;18726;44.732;10.550;2023-06-14T02:33:39;100454.16;;;22.21;100.00
32237;BME280;18726;44.732;10.550;2023-06-14T02:36:43;100451.72;;;22.07;100.00
32237;BME280;18726;44.732;10.550;2023-06-14T02:39:46;100447.06;;;22.04;100.00
32237;BME280;18726;44.732;10.550;2023-06-14T02:42:50;100448.19;;;22.07;100.00
32237;BME280;18726;44.732;10.550;2023-06-14T02:45:54;100454.09;;;21.89;100.00
32237;BME280;18726;44.732;10.550;2023-06-14T02:48:59;100451.34;;;21.89;100.00
32237;BME280;18726;44.732;10.550;2023-06-14T02:52:03;100453.25;;;21.92;100.00
32237;BME280;18726;44.732;10.550;2023-06-14T02:55:07;100450.09;;;22.10;100.00
32237;BME280;18726;44.732;10.550;2023-06-14T02:58:12;100451.06;;;21.83;100.00
32237;BME280;18726;44.732;10.550;2023-06-14T03:01:16;100448.88;;;21.75;100.00
32237;BME280;18726;44.732;10.550;2023-06-14T03:04:21;100451.41;;;21.66;100.00
32237;BME280;18726;44.732;10.550;2023-06-14T03:07:25;100443.03;;;21.53;100.00
32237;BME280;18726;44.732;10.550;2023-06-14T03:10:31;100444.38;;;21.65;100.00
32237;BME280;18726;44.732;10.550;2023-06-14T03:13:35;100440.84;;;21.80;100.00
32237;BME280;18726;44.732;10.550;2023-06-14T03:16:42;100438.50;;;21.79;100.00
32237;BME280;18726;44.732;10.550;2023-06-14T03:19:49;100440.47;;;21.62;100.00
32237;BME280;18726;44.732;10.550;2023-06-14T03:22:53;100451.88;;;21.64;100.00
32237;BME280;18726;44.732;10.550;2023-06-14T03:25:58;100449.41;;;21.86;100.00
32237;BME280;18726;44.732;10.550;2023-06-14T03:29:01;100447.94;;;21.81;100.00
32237;BME280;18726;44.732;10.550;2023-06-14T03:32:05;100452.53;;;21.88;100.00
32237;BME280;18726;44.732;10.550;2023-06-14T03:35:15;100457.00;;;21.82;100.00
32237;BME280;18726;44.732;10.550;2023-06-14T03:38:22;100455.66;;;21.70;100.00
32237;BME280;18726;44.732;10.550;2023-06-14T03:41:26;100459.38;;;21.64;100.00
32237;BME280;18726;44.732;10.550;2023-06-14T03:44:31;100463.91;;;21.74;100.00
32237;BME280;18726;44.732;10.550;2023-06-14T03:47:36;100473.75;;;21.75;100.00
32237;BME280;18726;44.732;10.550;2023-06-14T03:50:40;100468.56;;;21.77;100.00
32237;BME280;18726;44.732;10.550;2023-06-14T03:53:45;100477.31;;;22.11;100.00
32237;BME280;18726;44.732;10.550;2023-06-14T03:56:50;100468.94;;;22.15;100.00
32237;BME280;18726;44.732;10.550;2023-06-14T03:59:54;100470.97;;;22.47;100.00
32237;BME280;18726;44.732;10.550;2023-06-14T04:02:59;100483.50;;;22.84;100.00
32237;BME280;18726;44.732;10.550;2023-06-14T04:06:04;100485.28;;;23.07;100.00
32237;BME280;18726;44.732;10.550;2023-06-14T04:09:08;100480.72;;;23.29;100.00
32237;BME280;18726;44.732;10.550;2023-06-14T04:12:12;100474.72;;;23.72;100.00
32237;BME280;18726;44.732;10.550;2023-06-14T04:15:16;100492.66;;;24.35;100.00
32237;BME280;18726;44.732;10.550;2023-06-14T04:18:20;100491.16;;;24.81;100.00
32237;BME280;18726;44.732;10.550;2023-06-14T04:21:24;100499.69;;;24.86;93.47
32237;BME280;18726;44.732;10.550;2023-06-14T04:24:30;100492.28;;;25.18;93.36
32237;BME280;18726;44.732;10.550;2023-06-14T04:27:36;100492.97;;;25.66;88.67
32237;BME280;18726;44.732;10.550;2023-06-14T04:30:42;100496.56;;;26.06;85.76
32237;BME280;18726;44.732;10.550;2023-06-14T04:33:46;100507.88;;;27.29;83.39
32237;BME280;18726;44.732;10.550;2023-06-14T04:36:55;100503.81;;;28.27;76.54
32237;BME280;18726;44.732;10.550;2023-06-14T04:40:04;100507.56;;;29.19;70.20
32237;BME280;18726;44.732;10.550;2023-06-14T04:43:11;100515.69;;;29.70;68.52
32237;BME280;18726;44.732;10.550;2023-06-14T04:46:17;100514.97;;;30.19;65.18
32237;BME280;18726;44.732;10.550;2023-06-14T04:49:21;100519.53;;;30.52;63.04
32237;BME280;18726;44.732;10.550;2023-06-14T04:52:26;100521.97;;;30.79;60.53
32237;BME280;18726;44.732;10.550;2023-06-14T04:55:31;100522.25;;;30.46;62.07
32237;BME280;18726;44.732;10.550;2023-06-14T04:58:35;100526.19;;;30.89;62.89
32237;BME280;18726;44.732;10.550;2023-06-14T05:01:40;100526.19;;;31.56;62.95
32237;BME280;18726;44.732;10.550;2023-06-14T05:04:43;100523.63;;;30.92;60.69
32237;BME280;18726;44.732;10.550;2023-06-14T05:07:48;100523.56;;;31.06;58.75
32237;BME280;18726;44.732;10.550;2023-06-14T05:10:52;100527.06;;;31.01;60.20
32237;BME280;18726;44.732;10.550;2023-06-14T05:13:56;100529.38;;;31.43;58.87
32237;BME280;18726;44.732;10.550;2023-06-14T05:17:01;100537.34;;;31.71;58.82
32237;BME280;18726;44.732;10.550;2023-06-14T05:20:06;100535.44;;;31.62;60.38
32237;BME280;18726;44.732;10.550;2023-06-14T05:23:11;100528.41;;;31.06;62.43
32237;BME280;18726;44.732;10.550;2023-06-14T05:26:18;100520.00;;;29.86;64.96
32237;BME280;18726;44.732;10.550;2023-06-14T05:29:22;100523.78;;;29.15;70.23
32237;BME280;18726;44.732;10.550;2023-06-14T05:32:26;100514.38;;;28.55;71.20
32237;BME280;18726;44.732;10.550;2023-06-14T05:35:29;100518.91;;;28.44;74.49
32237;BME280;18726;44.732;10.550;2023-06-14T05:38:33;100512.75;;;28.64;77.33
32237;BME280;18726;44.732;10.550;2023-06-14T05:41:37;100520.44;;;29.02;76.99
32237;BME280;18726;44.732;10.550;2023-06-14T05:44:40;100519.56;;;29.34;76.54
32237;BME280;18726;44.732;10.550;2023-06-14T05:47:43;100524.25;;;29.67;73.32
32237;BME280;18726;44.732;10.550;2023-06-14T05:50:47;100528.72;;;30.87;71.29
32237;BME280;18726;44.732;10.550;2023-06-14T05:53:51;100527.09;;;31.47;68.50
32237;BME280;18726;44.732;10.550;2023-06-14T05:56:54;100528.91;;;31.50;68.31
32237;BME280;18726;44.732;10.550;2023-06-14T05:59:58;100530.53;;;32.14;65.96
32237;BME280;18726;44.732;10.550;2023-06-14T06:03:01;100526.13;;;32.02;65.75
32237;BME280;18726;44.732;10.550;2023-06-14T06:06:05;100522.16;;;32.20;65.11
32237;BME280;18726;44.732;10.550;2023-06-14T06:09:09;100523.41;;;32.99;61.72
32237;BME280;18726;44.732;10.550;2023-06-14T06:12:13;100536.16;;;34.43;57.12
32237;BME280;18726;44.732;10.550;2023-06-14T06:15:16;100531.97;;;34.72;54.54
32237;BME280;18726;44.732;10.550;2023-06-14T06:18:20;100531.78;;;34.53;54.20
32237;BME280;18726;44.732;10.550;2023-06-14T06:21:23;100536.09;;;34.65;53.70
32237;BME280;18726;44.732;10.550;2023-06-14T06:24:27;100536.19;;;34.20;51.95
32237;BME280;18726;44.732;10.550;2023-06-14T06:27:30;100534.13;;;33.87;53.95
32237;BME280;18726;44.732;10.550;2023-06-14T06:30:34;100536.38;;;33.44;55.45
32237;BME280;18726;44.732;10.550;2023-06-14T06:33:38;100533.34;;;32.46;58.34
32237;BME280;18726;44.732;10.550;2023-06-14T06:36:43;100532.69;;;33.16;61.87
32237;BME280;18726;44.732;10.550;2023-06-14T06:39:46;100534.72;;;33.21;60.01
32237;BME280;18726;44.732;10.550;2023-06-14T06:42:51;100542.28;;;33.46;59.92
32237;BME280;18726;44.732;10.550;2023-06-14T06:45:56;100540.75;;;33.68;60.58
32237;BME280;18726;44.732;10.550;2023-06-14T06:49:00;100540.81;;;34.01;60.21
32237;BME280;18726;44.732;10.550;2023-06-14T06:52:05;100547.72;;;34.00;59.93
32237;BME280;18726;44.732;10.550;2023-06-14T06:55:09;100548.75;;;33.86;61.03
32237;BME280;18726;44.732;10.550;2023-06-14T06:58:14;100555.88;;;33.65;62.27
32237;BME280;18726;44.732;10.550;2023-06-14T07:01:19;100550.44;;;33.50;64.16
32237;BME280;18726;44.732;10.550;2023-06-14T07:04:23;100559.66;;;33.39;64.24
32237;BME280;18726;44.732;10.550;2023-06-14T07:07:26;100552.06;;;33.03;63.09
32237;BME280;18726;44.732;10.550;2023-06-14T07:10:30;100551.44;;;32.76;61.97
32237;BME280;18726;44.732;10.550;2023-06-14T07:13:34;100561.97;;;32.44;61.71
32237;BME280;18726;44.732;10.550;2023-06-14T07:16:39;100564.66;;;31.70;62.59
32237;BME280;18726;44.732;10.550;2023-06-14T07:19:42;100567.91;;;32.20;68.87
32237;BME280;18726;44.732;10.550;2023-06-14T07:22:47;100568.81;;;32.32;58.57
32237;BME280;18726;44.732;10.550;2023-06-14T07:25:51;100567.41;;;31.91;65.61
32237;BME280;18726;44.732;10.550;2023-06-14T07:28:55;100574.72;;;32.40;65.34
32237;BME280;18726;44.732;10.550;2023-06-14T07:31:59;100576.66;;;32.60;58.86
32237;BME280;18726;44.732;10.550;2023-06-14T07:35:03;100570.72;;;32.95;59.95
32237;BME280;18726;44.732;10.550;2023-06-14T07:38:07;100574.94;;;32.36;60.35
32237;BME280;18726;44.732;10.550;2023-06-14T07:41:10;100578.94;;;33.04;63.97
32237;BME280;18726;44.732;10.550;2023-06-14T07:44:13;100575.28;;;33.51;61.93
32237;BME280;18726;44.732;10.550;2023-06-14T07:47:17;100580.91;;;33.35;69.60
32237;BME280;18726;44.732;10.550;2023-06-14T07:50:21;100575.28;;;33.51;66.92
32237;BME280;18726;44.732;10.550;2023-06-14T07:53:25;100587.03;;;33.33;57.09
32237;BME280;18726;44.732;10.550;2023-06-14T07:56:29;100576.97;;;33.21;67.88
32237;BME280;18726;44.732;10.550;2023-06-14T07:59:33;100585.13;;;33.95;66.68
32237;BME280;18726;44.732;10.550;2023-06-14T08:02:36;100592.59;;;34.04;65.67
32237;BME280;18726;44.732;10.550;2023-06-14T08:05:40;100589.78;;;34.32;63.96
32237;BME280;18726;44.732;10.550;2023-06-14T08:08:43;100592.31;;;34.18;53.67
32237;BME280;18726;44.732;10.550;2023-06-14T08:11:47;100593.81;;;33.75;63.88
32237;BME280;18726;44.732;10.550;2023-06-14T08:14:50;100593.34;;;34.04;60.41
32237;BME280;18726;44.732;10.550;2023-06-14T08:17:55;100597.22;;;34.35;60.39
32237;BME280;18726;44.732;10.550;2023-06-14T08:20:59;100597.41;;;34.93;60.84
32237;BME280;18726;44.732;10.550;2023-06-14T08:24:03;100600.16;;;35.62;59.36
32237;BME280;18726;44.732;10.550;2023-06-14T08:27:07;100607.81;;;35.72;54.55
32237;BME280;18726;44.732;10.550;2023-06-14T08:30:11;100609.44;;;35.57;56.33
32237;BME280;18726;44.732;10.550;2023-06-14T08:33:15;100611.66;;;35.80;57.40
32237;BME280;18726;44.732;10.550;2023-06-14T08:36:19;100613.63;;;36.27;56.55
32237;BME280;18726;44.732;10.550;2023-06-14T08:39:23;100608.56;;;36.14;56.52
32237;BME280;18726;44.732;10.550;2023-06-14T08:42:27;100607.41;;;36.34;53.80
32237;BME280;18726;44.732;10.550;2023-06-14T08:45:31;100612.72;;;33.58;59.18
32237;BME280;18726;44.732;10.550;2023-06-14T08:48:35;100607.59;;;33.62;55.77
32237;BME280;18726;44.732;10.550;2023-06-14T08:51:38;100617.94;;;34.88;56.39
32237;BME280;18726;44.732;10.550;2023-06-14T08:54:44;100622.28;;;36.04;55.57
32237;BME280;18726;44.732;10.550;2023-06-14T08:57:49;100620.09;;;35.86;53.03
32237;BME280;18726;44.732;10.550;2023-06-14T09:00:54;100619.72;;;34.91;53.65
32237;BME280;18726;44.732;10.550;2023-06-14T09:03:57;100622.97;;;35.80;51.90
32237;BME280;18726;44.732;10.550;2023-06-14T09:07:01;100623.50;;;35.15;52.02
32237;BME280;18726;44.732;10.550;2023-06-14T09:10:10;100623.09;;;32.81;52.13
32237;BME280;18726;44.732;10.550;2023-06-14T09:13:14;100623.34;;;34.63;50.69
32237;BME280;18726;44.732;10.550;2023-06-14T09:16:18;100623.22;;;35.77;49.80
32237;BME280;18726;44.732;10.550;2023-06-14T09:19:25;100612.28;;;36.63;51.72
32237;BME280;18726;44.732;10.550;2023-06-14T09:22:29;100619.63;;;36.72;45.56
32237;BME280;18726;44.732;10.550;2023-06-14T09:25:41;100613.06;;;34.10;50.05
32237;BME280;18726;44.732;10.550;2023-06-14T09:28:48;100614.88;;;33.96;54.58
32237;BME280;18726;44.732;10.550;2023-06-14T09:31:52;100616.66;;;34.16;52.93
32237;BME280;18726;44.732;10.550;2023-06-14T09:34:56;100611.25;;;34.91;57.66
32237;BME280;18726;44.732;10.550;2023-06-14T09:37:59;100608.69;;;35.97;55.34
32237;BME280;18726;44.732;10.550;2023-06-14T09:41:04;100613.84;;;36.59;55.05
32237;BME280;18726;44.732;10.550;2023-06-14T09:44:10;100612.91;;;36.15;49.28
32237;BME280;18726;44.732;10.550;2023-06-14T09:47:15;100617.38;;;34.95;52.32
32237;BME280;18726;44.732;10.550;2023-06-14T09:50:19;100612.81;;;34.92;52.55
32237;BME280;18726;44.732;10.550;2023-06-14T09:53:23;100607.16;;;33.80;54.39
32237;BME280;18726;44.732;10.550;2023-06-14T09:56:29;100604.38;;;34.47;55.38
32237;BME280;18726;44.732;10.550;2023-06-14T09:59:33;100610.03;;;32.78;56.44
32237;BME280;18726;44.732;10.550;2023-06-14T10:02:39;100614.56;;;32.33;59.13
32237;BME280;18726;44.732;10.550;2023-06-14T10:05:47;100603.13;;;32.16;56.58
32237;BME280;18726;44.732;10.550;2023-06-14T10:08:53;100602.94;;;32.94;55.17
32237;BME280;18726;44.732;10.550;2023-06-14T10:12:00;100581.66;;;33.35;57.85
32237;BME280;18726;44.732;10.550;2023-06-14T10:15:05;100590.53;;;33.93;55.11
32237;BME280;18726;44.732;10.550;2023-06-14T10:24:59;100591.25;;;33.06;51.28
32237;BME280;18726;44.732;10.550;2023-06-14T10:28:24;100581.91;;;32.78;51.24
32237;BME280;18726;44.732;10.550;2023-06-14T10:31:40;100576.34;;;32.52;50.79
32237;BME280;18726;44.732;10.550;2023-06-14T10:34:45;100578.38;;;32.20;55.93
32237;BME280;18726;44.732;10.550;2023-06-14T10:37:49;100570.09;;;31.79;55.32
32237;BME280;18726;44.732;10.550;2023-06-14T10:40:55;100569.22;;;31.47;53.66
32237;BME280;18726;44.732;10.550;2023-06-14T10:47:33;100562.97;;;33.32;50.50
32237;BME280;18726;44.732;10.550;2023-06-14T10:50:41;100560.22;;;34.66;47.08
32237;BME280;18726;44.732;10.550;2023-06-14T10:53:48;100563.00;;;34.89;45.00
32237;BME280;18726;44.732;10.550;2023-06-14T10:56:53;100564.63;;;33.02;44.60
32237;BME280;18726;44.732;10.550;2023-06-14T10:59:59;100556.69;;;32.58;46.94
32237;BME280;18726;44.732;10.550;2023-06-14T11:06:44;100555.31;;;32.42;49.58
32237;BME280;18726;44.732;10.550;2023-06-14T11:13:00;100530.53;;;32.88;52.40
32237;BME280;18726;44.732;10.550;2023-06-14T11:16:10;100541.06;;;32.51;55.20
32237;BME280;18726;44.732;10.550;2023-06-14T11:19:15;100537.16;;;34.57;53.02
32237;BME280;18726;44.732;10.550;2023-06-14T11:22:21;100536.09;;;35.75;52.58
32237;BME280;18726;44.732;10.550;2023-06-14T11:25:25;100523.00;;;36.38;46.91
32237;BME280;18726;44.732;10.550;2023-06-14T11:28:40;100527.59;;;33.20;48.64
32237;BME280;18726;44.732;10.550;2023-06-14T11:31:45;100524.84;;;32.77;49.32
32237;BME280;18726;44.732;10.550;2023-06-14T11:34:49;100513.75;;;33.22;50.73
32237;BME280;18726;44.732;10.550;2023-06-14T11:37:55;100516.81;;;33.13;50.92
32237;BME280;18726;44.732;10.550;2023-06-14T11:41:01;100537.00;;;32.63;48.26
32237;BME280;18726;44.732;10.550;2023-06-14T11:44:05;100528.91;;;33.30;48.83
32237;BME280;18726;44.732;10.550;2023-06-14T11:47:08;100527.94;;;34.50;50.90
32237;BME280;18726;44.732;10.550;2023-06-14T11:50:12;100516.59;;;35.36;53.54
32237;BME280;18726;44.732;10.550;2023-06-14T11:53:15;100517.38;;;35.26;48.86
32237;BME280;18726;44.732;10.550;2023-06-14T11:56:20;100521.31;;;35.17;47.56
32237;BME280;18726;44.732;10.550;2023-06-14T11:59:24;100516.75;;;35.03;50.24
32237;BME280;18726;44.732;10.550;2023-06-14T12:02:31;100511.59;;;35.89;49.11
32237;BME280;18726;44.732;10.550;2023-06-14T12:05:34;100507.56;;;35.43;48.27
32237;BME280;18726;44.732;10.550;2023-06-14T12:08:38;100512.31;;;33.54;51.34
32237;BME280;18726;44.732;10.550;2023-06-14T12:11:43;100505.03;;;31.61;58.13
32237;BME280;18726;44.732;10.550;2023-06-14T12:14:47;100498.75;;;30.99;64.58
32237;BME280;18726;44.732;10.550;2023-06-14T12:17:51;100481.00;;;31.08;62.08
32237;BME280;18726;44.732;10.550;2023-06-14T12:20:58;100483.59;;;31.89;60.61
32237;BME280;18726;44.732;10.550;2023-06-14T12:24:06;100475.28;;;31.48;65.97
32237;BME280;18726;44.732;10.550;2023-06-14T12:27:14;100483.00;;;31.28;60.36
32237;BME280;18726;44.732;10.550;2023-06-14T12:30:19;100486.38;;;31.11;57.92
32237;BME280;18726;44.732;10.550;2023-06-14T12:33:22;100476.13;;;31.54;59.68
32237;BME280;18726;44.732;10.550;2023-06-14T12:36:25;100473.94;;;30.37;59.16
32237;BME280;18726;44.732;10.550;2023-06-14T12:39:30;100476.75;;;31.12;58.40
32237;BME280;18726;44.732;10.550;2023-06-14T12:42:35;100484.28;;;31.52;60.01
32237;BME280;18726;44.732;10.550;2023-06-14T12:45:39;100471.81;;;29.97;62.26
32237;BME280;18726;44.732;10.550;2023-06-14T12:48:42;100468.19;;;30.26;64.27
32237;BME280;18726;44.732;10.550;2023-06-14T12:51:45;100471.88;;;31.65;61.14
32237;BME280;18726;44.732;10.550;2023-06-14T12:54:49;100470.84;;;29.85;61.12
32237;BME280;18726;44.732;10.550;2023-06-14T12:57:53;100459.91;;;30.37;61.26
32237;BME280;18726;44.732;10.550;2023-06-14T13:00:57;100469.94;;;30.23;63.33
32237;BME280;18726;44.732;10.550;2023-06-14T13:04:01;100464.72;;;31.64;60.65
32237;BME280;18726;44.732;10.550;2023-06-14T13:07:04;100465.41;;;30.46;61.41
32237;BME280;18726;44.732;10.550;2023-06-14T13:10:08;100475.28;;;30.06;61.11
32237;BME280;18726;44.732;10.550;2023-06-14T13:13:12;100467.91;;;30.59;62.61
32237;BME280;18726;44.732;10.550;2023-06-14T13:16:16;100467.03;;;30.17;62.40
32237;BME280;18726;44.732;10.550;2023-06-14T13:19:20;100469.59;;;30.01;61.10
32237;BME280;18726;44.732;10.550;2023-06-14T13:22:25;100464.19;;;31.34;57.55
32237;BME280;18726;44.732;10.550;2023-06-14T13:25:29;100466.09;;;29.32;62.44
32237;BME280;18726;44.732;10.550;2023-06-14T13:28:32;100462.03;;;30.07;59.39
32237;BME280;18726;44.732;10.550;2023-06-14T13:31:38;100462.03;;;30.07;63.24
32237;BME280;18726;44.732;10.550;2023-06-14T13:34:42;100464.09;;;31.02;59.53
32237;BME280;18726;44.732;10.550;2023-06-14T13:37:45;100459.19;;;30.77;57.21
32237;BME280;18726;44.732;10.550;2023-06-14T13:40:49;100464.47;;;29.84;61.51
32237;BME280;18726;44.732;10.550;2023-06-14T13:43:52;100451.81;;;29.30;65.85
32237;BME280;18726;44.732;10.550;2023-06-14T13:46:56;100445.25;;;28.56;65.85
32237;BME280;18726;44.732;10.550;2023-06-14T13:50:00;100450.66;;;29.81;64.99
32237;BME280;18726;44.732;10.550;2023-06-14T13:53:04;100446.88;;;30.34;61.72
32237;BME280;18726;44.732;10.550;2023-06-14T13:56:08;100442.03;;;30.89;58.24
32237;BME280;18726;44.732;10.550;2023-06-14T13:59:11;100436.66;;;29.96;59.44
32237;BME280;18726;44.732;10.550;2023-06-14T14:02:15;100441.13;;;30.22;55.82
32237;BME280;18726;44.732;10.550;2023-06-14T14:05:19;100449.72;;;30.54;55.16
32237;BME280;18726;44.732;10.550;2023-06-14T14:08:24;100443.66;;;31.02;55.42
32237;BME280;18726;44.732;10.550;2023-06-14T14:11:28;100439.63;;;29.04;65.52
32237;BME280;18726;44.732;10.550;2023-06-14T14:14:32;100455.78;;;28.85;58.02
32237;BME280;18726;44.732;10.550;2023-06-14T14:17:35;100441.03;;;30.52;54.32
32237;BME280;18726;44.732;10.550;2023-06-14T14:20:39;100441.34;;;30.39;56.77
32237;BME280;18726;44.732;10.550;2023-06-14T14:23:43;100443.84;;;30.17;57.14
32237;BME280;18726;44.732;10.550;2023-06-14T14:26:47;100441.03;;;30.32;54.49
32237;BME280;18726;44.732;10.550;2023-06-14T14:29:52;100445.47;;;31.82;53.27
32237;BME280;18726;44.732;10.550;2023-06-14T14:32:56;100429.84;;;31.44;52.67
32237;BME280;18726;44.732;10.550;2023-06-14T14:35:59;100432.69;;;31.76;52.97
32237;BME280;18726;44.732;10.550;2023-06-14T14:39:07;100433.44;;;31.76;50.62
32237;BME280;18726;44.732;10.550;2023-06-14T14:42:10;100422.75;;;31.54;52.19
32237;BME280;18726;44.732;10.550;2023-06-14T14:45:15;100420.66;;;31.49;52.86
32237;BME280;18726;44.732;10.550;2023-06-14T14:48:18;100426.28;;;30.16;55.67
32237;BME280;18726;44.732;10.550;2023-06-14T14:51:22;100430.16;;;31.26;50.69
32237;BME280;18726;44.732;10.550;2023-06-14T14:54:25;100425.78;;;31.45;52.22
32237;BME280;18726;44.732;10.550;2023-06-14T14:57:29;100423.19;;;30.14;56.35
32237;BME280;18726;44.732;10.550;2023-06-14T15:00:35;100428.41;;;30.82;52.88
32237;BME280;18726;44.732;10.550;2023-06-14T15:03:39;100430.34;;;32.11;51.49
32237;BME280;18726;44.732;10.550;2023-06-14T15:06:43;100431.41;;;32.19;48.96
32237;BME280;18726;44.732;10.550;2023-06-14T15:09:47;100429.81;;;30.52;52.18
32237;BME280;18726;44.732;10.550;2023-06-14T15:12:54;100427.38;;;31.06;52.28
32237;BME280;18726;44.732;10.550;2023-06-14T15:15:57;100441.75;;;31.97;47.57
32237;BME280;18726;44.732;10.550;2023-06-14T15:19:01;100435.50;;;32.18;48.30
32237;BME280;18726;44.732;10.550;2023-06-14T15:22:05;100431.38;;;31.45;55.07
32237;BME280;18726;44.732;10.550;2023-06-14T15:25:09;100436.84;;;30.82;56.68
32237;BME280;18726;44.732;10.550;2023-06-14T15:28:13;100438.94;;;30.67;58.59
32237;BME280;18726;44.732;10.550;2023-06-14T15:31:17;100432.59;;;30.93;59.25
32237;BME280;18726;44.732;10.550;2023-06-14T15:34:21;100433.69;;;30.75;60.44
32237;BME280;18726;44.732;10.550;2023-06-14T15:37:24;100429.81;;;30.72;59.33
32237;BME280;18726;44.732;10.550;2023-06-14T15:40:28;100423.84;;;30.44;62.87
32237;BME280;18726;44.732;10.550;2023-06-14T15:43:32;100424.69;;;29.36;67.46
32237;BME280;18726;44.732;10.550;2023-06-14T15:46:36;100419.38;;;29.09;66.91
32237;BME280;18726;44.732;10.550;2023-06-14T15:49:39;100430.38;;;29.86;65.15
32237;BME280;18726;44.732;10.550;2023-06-14T15:52:43;100434.66;;;30.31;66.65
32237;BME280;18726;44.732;10.550;2023-06-14T15:55:46;100437.28;;;30.20;67.60
32237;BME280;18726;44.732;10.550;2023-06-14T15:58:50;100435.81;;;29.45;68.39
32237;BME280;18726;44.732;10.550;2023-06-14T16:01:53;100429.94;;;30.22;66.53
32237;BME280;18726;44.732;10.550;2023-06-14T16:04:57;100427.97;;;30.49;64.02
32237;BME280;18726;44.732;10.550;2023-06-14T16:08:00;100434.59;;;30.66;64.15